sensor_id;sensor_type;location;lat;lon;timestamp;P1;durP1;ratioP1;P2;durP2;ratioP2
27402;SDS011;14862;49.494;8.530;2024-01-15T00:01:08;39.60;;;16.30;;
27402;SDS011;14862;49.494;8.530;2024-01-15T00:03:33;38.93;;;15.43;;
27402;SDS011;14862;49.494;8.530;2024-01-15T00:05:58;38.60;;;16.87;;
27402;SDS011;14862;49.494;8.530;2024-01-15T00:08:24;37.07;;;15.90;;
27402;SDS011;14862;49.494;8.530;2024-01-15T00:10:49;38.65;;;15.57;;
27402;SDS011;14862;49.494;8.530;2024-01-15T00:13:14;36.00;;;14.40;;
27402;SDS011;14862;49.494;8.530;2024-01-15T00:15:40;38.60;;;14.75;;
27402;SDS011;14862;49.494;8.530;2024-01-15T00:18:05;35.17;;;14.38;;
27402;SDS011;14862;49.494;8.530;2024-01-15T00:20:30;34.35;;;15.00;;
27402;SDS011;14862;49.494;8.530;2024-01-15T00:22:55;36.53;;;14.02;;
27402;SDS011;14862;49.494;8.530;2024-01-15T00:25:21;39.93;;;15.00;;
27402;SDS011;14862;49.494;8.530;2024-01-15T00:27:46;35.00;;;15.05;;
27402;SDS011;14862;49.494;8.530;2024-01-15T00:30:11;33.38;;;14.82;;
27402;SDS011;14862;49.494;8.530;2024-01-15T00:32:37;30.85;;;14.07;;
27402;SDS011;14862;49.494;8.530;2024-01-15T00:35:02;29.80;;;13.80;;
27402;SDS011;14862;49.494;8.530;2024-01-15T00:37:28;35.67;;;13.30;;
27402;SDS011;14862;49.494;8.530;2024-01-15T00:39:53;35.17;;;15.37;;
27402;SDS011;14862;49.494;8.530;2024-01-15T00:42:18;36.63;;;14.73;;
27402;SDS011;14862;49.494;8.530;2024-01-15T00:44:43;35.63;;;15.50;;
27402;SDS011;14862;49.494;8.530;2024-01-15T00:47:09;38.90;;;15.30;;
27402;SDS011;14862;49.494;8.530;2024-01-15T00:49:34;37.57;;;15.73;;
27402;SDS011;14862;49.494;8.530;2024-01-15T00:51:59;37.92;;;15.77;;
27402;SDS011;14862;49.494;8.530;2024-01-15T00:54:24;39.37;;;15.97;;
27402;SDS011;14862;49.494;8.530;2024-01-15T00:56:49;35.35;;;15.48;;
27402;SDS011;14862;49.494;8.530;2024-01-15T00:59:15;33.53;;;14.93;;
27402;SDS011;14862;49.494;8.530;2024-01-15T01:01:41;36.05;;;15.50;;
27402;SDS011;14862;49.494;8.530;2024-01-15T01:04:08;38.60;;;15.38;;
27402;SDS011;14862;49.494;8.530;2024-01-15T01:06:33;37.70;;;15.32;;
27402;SDS011;14862;49.494;8.530;2024-01-15T01:08:58;33.53;;;14.45;;
27402;SDS011;14862;49.494;8.530;2024-01-15T01:11:24;33.57;;;14.57;;
27402;SDS011;14862;49.494;8.530;2024-01-15T01:13:49;35.33;;;14.45;;
27402;SDS011;14862;49.494;8.530;2024-01-15T01:16:14;36.90;;;14.40;;
27402;SDS011;14862;49.494;8.530;2024-01-15T01:18:39;32.23;;;13.63;;
27402;SDS011;14862;49.494;8.530;2024-01-15T01:21:04;33.20;;;14.23;;
27402;SDS011;14862;49.494;8.530;2024-01-15T01:23:30;31.80;;;14.73;;
27402;SDS011;14862;49.494;8.530;2024-01-15T01:25:55;36.22;;;15.50;;
27402;SDS011;14862;49.494;8.530;2024-01-15T01:28:20;41.03;;;14.98;;
27402;SDS011;14862;49.494;8.530;2024-01-15T01:30:45;30.57;;;14.37;;
27402;SDS011;14862;49.494;8.530;2024-01-15T01:33:10;35.30;;;14.27;;
27402;SDS011;14862;49.494;8.530;2024-01-15T01:35:36;35.83;;;13.87;;
27402;SDS011;14862;49.494;8.530;2024-01-15T01:38:01;38.00;;;15.68;;
27402;SDS011;14862;49.494;8.530;2024-01-15T01:40:26;37.58;;;15.90;;
27402;SDS011;14862;49.494;8.530;2024-01-15T01:42:51;44.35;;;17.50;;
27402;SDS011;14862;49.494;8.530;2024-01-15T01:45:17;37.15;;;14.07;;
27402;SDS011;14862;49.494;8.530;2024-01-15T01:47:42;38.33;;;15.70;;
27402;SDS011;14862;49.494;8.530;2024-01-15T01:50:07;40.17;;;15.63;;
27402;SDS011;14862;49.494;8.530;2024-01-15T01:52:33;43.55;;;17.42;;
27402;SDS011;14862;49.494;8.530;2024-01-15T01:54:59;41.17;;;16.15;;
27402;SDS011;14862;49.494;8.530;2024-01-15T01:57:25;43.03;;;16.70;;
27402;SDS011;14862;49.494;8.530;2024-01-15T01:59:50;39.80;;;15.90;;
27402;SDS011;14862;49.494;8.530;2024-01-15T02:02:15;40.72;;;17.20;;
27402;SDS011;14862;49.494;8.530;2024-01-15T02:04:41;42.83;;;16.50;;
27402;SDS011;14862;49.494;8.530;2024-01-15T02:07:06;44.95;;;17.05;;
27402;SDS011;14862;49.494;8.530;2024-01-15T02:09:32;37.35;;;17.08;;
27402;SDS011;14862;49.494;8.530;2024-01-15T02:11:57;46.13;;;17.85;;
27402;SDS011;14862;49.494;8.530;2024-01-15T02:14:22;40.60;;;15.75;;
27402;SDS011;14862;49.494;8.530;2024-01-15T02:16:47;38.90;;;16.83;;
27402;SDS011;14862;49.494;8.530;2024-01-15T02:19:16;40.35;;;16.13;;
27402;SDS011;14862;49.494;8.530;2024-01-15T02:21:42;40.53;;;16.88;;
27402;SDS011;14862;49.494;8.530;2024-01-15T02:24:07;37.67;;;15.85;;
27402;SDS011;14862;49.494;8.530;2024-01-15T02:26:32;39.50;;;16.73;;
27402;SDS011;14862;49.494;8.530;2024-01-15T02:29:00;40.03;;;15.52;;
27402;SDS011;14862;49.494;8.530;2024-01-15T02:31:26;37.97;;;16.83;;
27402;SDS011;14862;49.494;8.530;2024-01-15T02:33:51;41.00;;;16.93;;
27402;SDS011;14862;49.494;8.530;2024-01-15T02:36:16;36.13;;;15.53;;
27402;SDS011;14862;49.494;8.530;2024-01-15T02:38:41;34.45;;;16.50;;
27402;SDS011;14862;49.494;8.530;2024-01-15T02:41:07;36.70;;;13.60;;
27402;SDS011;14862;49.494;8.530;2024-01-15T02:43:32;38.87;;;15.83;;
27402;SDS011;14862;49.494;8.530;2024-01-15T02:45:57;34.40;;;14.23;;
27402;SDS011;14862;49.494;8.530;2024-01-15T02:48:22;34.43;;;13.93;;
27402;SDS011;14862;49.494;8.530;2024-01-15T02:50:47;33.50;;;14.45;;
27402;SDS011;14862;49.494;8.530;2024-01-15T02:53:13;33.03;;;14.55;;
27402;SDS011;14862;49.494;8.530;2024-01-15T02:55:38;32.95;;;14.45;;
27402;SDS011;14862;49.494;8.530;2024-01-15T02:58:03;35.70;;;14.90;;
27402;SDS011;14862;49.494;8.530;2024-01-15T03:00:29;34.33;;;13.50;;
27402;SDS011;14862;49.494;8.530;2024-01-15T03:02:54;30.83;;;12.85;;
27402;SDS011;14862;49.494;8.530;2024-01-15T03:05:19;33.50;;;14.40;;
27402;SDS011;14862;49.494;8.530;2024-01-15T03:07:45;33.35;;;12.95;;
27402;SDS011;14862;49.494;8.530;2024-01-15T03:10:10;35.58;;;13.80;;
27402;SDS011;14862;49.494;8.530;2024-01-15T03:12:35;32.50;;;13.80;;
27402;SDS011;14862;49.494;8.530;2024-01-15T03:15:01;34.28;;;13.32;;
27402;SDS011;14862;49.494;8.530;2024-01-15T03:17:26;34.80;;;13.40;;
27402;SDS011;14862;49.494;8.530;2024-01-15T03:19:51;29.55;;;13.98;;
27402;SDS011;14862;49.494;8.530;2024-01-15T03:22:16;34.42;;;12.82;;
27402;SDS011;14862;49.494;8.530;2024-01-15T03:24:42;31.33;;;13.60;;
27402;SDS011;14862;49.494;8.530;2024-01-15T03:27:07;35.08;;;14.60;;
27402;SDS011;14862;49.494;8.530;2024-01-15T03:29:32;31.20;;;12.48;;
27402;SDS011;14862;49.494;8.530;2024-01-15T03:31:58;32.95;;;13.48;;
27402;SDS011;14862;49.494;8.530;2024-01-15T03:34:23;34.25;;;14.43;;
27402;SDS011;14862;49.494;8.530;2024-01-15T03:36:48;36.70;;;13.88;;
27402;SDS011;14862;49.494;8.530;2024-01-15T03:39:13;27.67;;;13.13;;
27402;SDS011;14862;49.494;8.530;2024-01-15T03:41:38;30.73;;;12.13;;
27402;SDS011;14862;49.494;8.530;2024-01-15T03:44:04;33.20;;;13.47;;
27402;SDS011;14862;49.494;8.530;2024-01-15T03:46:29;30.80;;;13.25;;
27402;SDS011;14862;49.494;8.530;2024-01-15T03:48:54;29.70;;;13.67;;
27402;SDS011;14862;49.494;8.530;2024-01-15T03:51:19;33.60;;;12.45;;
27402;SDS011;14862;49.494;8.530;2024-01-15T03:53:45;32.05;;;13.20;;
27402;SDS011;14862;49.494;8.530;2024-01-15T03:56:10;31.27;;;13.38;;
27402;SDS011;14862;49.494;8.530;2024-01-15T03:58:36;29.95;;;13.07;;
27402;SDS011;14862;49.494;8.530;2024-01-15T04:01:01;30.45;;;14.07;;
27402;SDS011;14862;49.494;8.530;2024-01-15T04:03:26;31.92;;;13.85;;
27402;SDS011;14862;49.494;8.530;2024-01-15T04:05:51;33.42;;;14.18;;
27402;SDS011;14862;49.494;8.530;2024-01-15T04:08:17;32.53;;;13.70;;
27402;SDS011;14862;49.494;8.530;2024-01-15T04:10:42;28.50;;;12.47;;
27402;SDS011;14862;49.494;8.530;2024-01-15T04:13:07;33.17;;;13.70;;
27402;SDS011;14862;49.494;8.530;2024-01-15T04:15:32;27.55;;;12.13;;
27402;SDS011;14862;49.494;8.530;2024-01-15T04:17:58;30.17;;;13.23;;
27402;SDS011;14862;49.494;8.530;2024-01-15T04:20:23;34.03;;;13.33;;
27402;SDS011;14862;49.494;8.530;2024-01-15T04:22:48;34.42;;;13.73;;
27402;SDS011;14862;49.494;8.530;2024-01-15T04:25:13;27.48;;;12.57;;
27402;SDS011;14862;49.494;8.530;2024-01-15T04:27:38;28.23;;;12.30;;
27402;SDS011;14862;49.494;8.530;2024-01-15T04:30:04;33.53;;;14.40;;
27402;SDS011;14862;49.494;8.530;2024-01-15T04:32:30;34.60;;;13.60;;
27402;SDS011;14862;49.494;8.530;2024-01-15T04:34:55;32.70;;;13.43;;
27402;SDS011;14862;49.494;8.530;2024-01-15T04:37:20;28.40;;;11.88;;
27402;SDS011;14862;49.494;8.530;2024-01-15T04:39:45;34.15;;;13.73;;
27402;SDS011;14862;49.494;8.530;2024-01-15T04:42:10;28.93;;;12.77;;
27402;SDS011;14862;49.494;8.530;2024-01-15T04:44:36;33.03;;;13.40;;
27402;SDS011;14862;49.494;8.530;2024-01-15T04:47:01;33.08;;;14.68;;
27402;SDS011;14862;49.494;8.530;2024-01-15T04:49:26;32.83;;;14.05;;
27402;SDS011;14862;49.494;8.530;2024-01-15T04:51:52;33.50;;;13.45;;
27402;SDS011;14862;49.494;8.530;2024-01-15T04:54:17;31.65;;;14.07;;
27402;SDS011;14862;49.494;8.530;2024-01-15T04:56:43;33.42;;;14.07;;
27402;SDS011;14862;49.494;8.530;2024-01-15T04:59:09;31.85;;;12.73;;
27402;SDS011;14862;49.494;8.530;2024-01-15T05:01:34;32.95;;;14.65;;
27402;SDS011;14862;49.494;8.530;2024-01-15T05:03:59;31.80;;;13.98;;
27402;SDS011;14862;49.494;8.530;2024-01-15T05:06:24;34.00;;;13.98;;
27402;SDS011;14862;49.494;8.530;2024-01-15T05:08:49;30.15;;;12.90;;
27402;SDS011;14862;49.494;8.530;2024-01-15T05:11:15;36.60;;;13.40;;
27402;SDS011;14862;49.494;8.530;2024-01-15T05:13:40;36.13;;;14.03;;
27402;SDS011;14862;49.494;8.530;2024-01-15T05:16:05;31.70;;;13.40;;
27402;SDS011;14862;49.494;8.530;2024-01-15T05:18:31;30.13;;;12.88;;
27402;SDS011;14862;49.494;8.530;2024-01-15T05:20:56;33.75;;;14.45;;
27402;SDS011;14862;49.494;8.530;2024-01-15T05:23:21;33.08;;;13.82;;
27402;SDS011;14862;49.494;8.530;2024-01-15T05:25:46;33.83;;;13.77;;
27402;SDS011;14862;49.494;8.530;2024-01-15T05:28:11;34.53;;;14.67;;
27402;SDS011;14862;49.494;8.530;2024-01-15T05:30:36;33.67;;;15.07;;
27402;SDS011;14862;49.494;8.530;2024-01-15T05:33:02;35.33;;;15.03;;
27402;SDS011;14862;49.494;8.530;2024-01-15T05:35:28;28.63;;;13.82;;
27402;SDS011;14862;49.494;8.530;2024-01-15T05:37:53;33.17;;;14.27;;
27402;SDS011;14862;49.494;8.530;2024-01-15T05:40:18;33.65;;;13.60;;
27402;SDS011;14862;49.494;8.530;2024-01-15T05:42:43;32.87;;;14.47;;
27402;SDS011;14862;49.494;8.530;2024-01-15T05:45:09;31.77;;;13.27;;
27402;SDS011;14862;49.494;8.530;2024-01-15T05:47:34;34.83;;;13.77;;
27402;SDS011;14862;49.494;8.530;2024-01-15T05:50:00;37.90;;;15.57;;
27402;SDS011;14862;49.494;8.530;2024-01-15T05:52:25;33.53;;;12.55;;
27402;SDS011;14862;49.494;8.530;2024-01-15T05:54:51;32.70;;;13.60;;
27402;SDS011;14862;49.494;8.530;2024-01-15T05:57:16;33.75;;;14.23;;
27402;SDS011;14862;49.494;8.530;2024-01-15T05:59:42;33.33;;;14.15;;
27402;SDS011;14862;49.494;8.530;2024-01-15T06:02:07;34.03;;;15.30;;
27402;SDS011;14862;49.494;8.530;2024-01-15T06:04:32;35.80;;;14.48;;
27402;SDS011;14862;49.494;8.530;2024-01-15T06:06:58;34.60;;;14.67;;
27402;SDS011;14862;49.494;8.530;2024-01-15T06:09:23;29.23;;;13.47;;
27402;SDS011;14862;49.494;8.530;2024-01-15T06:11:48;32.33;;;14.55;;
27402;SDS011;14862;49.494;8.530;2024-01-15T06:14:14;31.90;;;14.53;;
27402;SDS011;14862;49.494;8.530;2024-01-15T06:16:39;30.07;;;14.53;;
27402;SDS011;14862;49.494;8.530;2024-01-15T06:19:04;30.75;;;14.57;;
27402;SDS011;14862;49.494;8.530;2024-01-15T06:21:29;35.28;;;14.68;;
27402;SDS011;14862;49.494;8.530;2024-01-15T06:23:54;37.90;;;14.73;;
27402;SDS011;14862;49.494;8.530;2024-01-15T06:26:21;29.83;;;12.95;;
27402;SDS011;14862;49.494;8.530;2024-01-15T06:28:47;33.38;;;14.43;;
27402;SDS011;14862;49.494;8.530;2024-01-15T06:31:12;32.77;;;15.27;;
27402;SDS011;14862;49.494;8.530;2024-01-15T06:33:37;33.73;;;15.20;;
27402;SDS011;14862;49.494;8.530;2024-01-15T06:36:03;36.15;;;16.48;;
27402;SDS011;14862;49.494;8.530;2024-01-15T06:38:28;35.10;;;15.98;;
27402;SDS011;14862;49.494;8.530;2024-01-15T06:40:53;30.35;;;13.90;;
27402;SDS011;14862;49.494;8.530;2024-01-15T06:43:18;29.73;;;14.53;;
27402;SDS011;14862;49.494;8.530;2024-01-15T06:45:44;34.25;;;15.15;;
27402;SDS011;14862;49.494;8.530;2024-01-15T06:48:09;32.65;;;15.05;;
27402;SDS011;14862;49.494;8.530;2024-01-15T06:50:34;32.60;;;15.10;;
27402;SDS011;14862;49.494;8.530;2024-01-15T06:52:59;33.80;;;16.38;;
27402;SDS011;14862;49.494;8.530;2024-01-15T06:55:25;34.45;;;14.57;;
27402;SDS011;14862;49.494;8.530;2024-01-15T06:57:50;34.13;;;14.57;;
27402;SDS011;14862;49.494;8.530;2024-01-15T07:00:15;33.38;;;14.52;;
27402;SDS011;14862;49.494;8.530;2024-01-15T07:02:41;35.13;;;15.55;;
27402;SDS011;14862;49.494;8.530;2024-01-15T07:05:06;32.13;;;14.70;;
27402;SDS011;14862;49.494;8.530;2024-01-15T07:07:34;35.72;;;15.43;;
27402;SDS011;14862;49.494;8.530;2024-01-15T07:09:59;31.42;;;14.30;;
27402;SDS011;14862;49.494;8.530;2024-01-15T07:12:25;33.40;;;15.27;;
27402;SDS011;14862;49.494;8.530;2024-01-15T07:14:50;37.17;;;16.10;;
27402;SDS011;14862;49.494;8.530;2024-01-15T07:17:15;31.65;;;14.52;;
27402;SDS011;14862;49.494;8.530;2024-01-15T07:19:40;32.77;;;13.73;;
27402;SDS011;14862;49.494;8.530;2024-01-15T07:22:06;31.08;;;15.00;;
27402;SDS011;14862;49.494;8.530;2024-01-15T07:24:31;32.90;;;14.63;;
27402;SDS011;14862;49.494;8.530;2024-01-15T07:26:56;34.75;;;13.30;;
27402;SDS011;14862;49.494;8.530;2024-01-15T07:29:21;31.67;;;13.70;;
27402;SDS011;14862;49.494;8.530;2024-01-15T07:31:50;29.47;;;13.23;;
27402;SDS011;14862;49.494;8.530;2024-01-15T07:34:15;31.85;;;14.77;;
27402;SDS011;14862;49.494;8.530;2024-01-15T07:36:41;31.70;;;14.52;;
27402;SDS011;14862;49.494;8.530;2024-01-15T07:39:07;33.58;;;14.88;;
27402;SDS011;14862;49.494;8.530;2024-01-15T07:41:32;30.60;;;15.07;;
27402;SDS011;14862;49.494;8.530;2024-01-15T07:43:57;29.40;;;13.87;;
27402;SDS011;14862;49.494;8.530;2024-01-15T07:46:22;29.33;;;13.63;;
27402;SDS011;14862;49.494;8.530;2024-01-15T07:48:47;27.77;;;14.48;;
27402;SDS011;14862;49.494;8.530;2024-01-15T07:51:13;40.42;;;15.25;;
27402;SDS011;14862;49.494;8.530;2024-01-15T07:53:38;34.15;;;16.67;;
27402;SDS011;14862;49.494;8.530;2024-01-15T07:56:03;35.97;;;16.77;;
27402;SDS011;14862;49.494;8.530;2024-01-15T07:58:28;35.92;;;16.42;;
27402;SDS011;14862;49.494;8.530;2024-01-15T08:00:54;35.40;;;16.23;;
27402;SDS011;14862;49.494;8.530;2024-01-15T08:03:19;29.67;;;14.63;;
27402;SDS011;14862;49.494;8.530;2024-01-15T08:05:44;30.90;;;15.30;;
27402;SDS011;14862;49.494;8.530;2024-01-15T08:08:09;28.83;;;14.70;;
27402;SDS011;14862;49.494;8.530;2024-01-15T08:10:34;35.58;;;15.00;;
27402;SDS011;14862;49.494;8.530;2024-01-15T08:13:00;35.63;;;15.38;;
27402;SDS011;14862;49.494;8.530;2024-01-15T08:15:25;32.05;;;14.98;;
27402;SDS011;14862;49.494;8.530;2024-01-15T08:17:50;27.77;;;14.02;;
27402;SDS011;14862;49.494;8.530;2024-01-15T08:20:15;31.00;;;14.23;;
27402;SDS011;14862;49.494;8.530;2024-01-15T08:22:41;31.70;;;15.57;;
27402;SDS011;14862;49.494;8.530;2024-01-15T08:25:06;32.13;;;14.23;;
27402;SDS011;14862;49.494;8.530;2024-01-15T08:27:31;28.63;;;13.88;;
27402;SDS011;14862;49.494;8.530;2024-01-15T08:29:57;29.05;;;14.52;;
27402;SDS011;14862;49.494;8.530;2024-01-15T08:32:22;30.67;;;14.45;;
27402;SDS011;14862;49.494;8.530;2024-01-15T08:34:47;29.42;;;13.68;;
27402;SDS011;14862;49.494;8.530;2024-01-15T08:37:14;29.02;;;14.35;;
27402;SDS011;14862;49.494;8.530;2024-01-15T08:39:39;26.23;;;12.90;;
27402;SDS011;14862;49.494;8.530;2024-01-15T08:42:05;27.83;;;14.73;;
27402;SDS011;14862;49.494;8.530;2024-01-15T08:44:30;32.05;;;14.63;;
27402;SDS011;14862;49.494;8.530;2024-01-15T08:46:55;33.97;;;14.43;;
27402;SDS011;14862;49.494;8.530;2024-01-15T08:49:20;30.23;;;14.10;;
27402;SDS011;14862;49.494;8.530;2024-01-15T08:51:45;32.42;;;15.13;;
27402;SDS011;14862;49.494;8.530;2024-01-15T08:54:11;28.02;;;14.20;;
27402;SDS011;14862;49.494;8.530;2024-01-15T08:56:36;30.67;;;14.93;;
27402;SDS011;14862;49.494;8.530;2024-01-15T08:59:02;30.92;;;15.32;;
27402;SDS011;14862;49.494;8.530;2024-01-15T09:01:27;29.60;;;15.27;;
27402;SDS011;14862;49.494;8.530;2024-01-15T09:03:52;30.08;;;14.07;;
27402;SDS011;14862;49.494;8.530;2024-01-15T09:06:17;28.92;;;13.50;;
27402;SDS011;14862;49.494;8.530;2024-01-15T09:08:43;26.15;;;13.43;;
27402;SDS011;14862;49.494;8.530;2024-01-15T09:11:08;30.60;;;15.23;;
27402;SDS011;14862;49.494;8.530;2024-01-15T09:13:33;26.45;;;13.48;;
27402;SDS011;14862;49.494;8.530;2024-01-15T09:15:58;28.75;;;13.60;;
27402;SDS011;14862;49.494;8.530;2024-01-15T09:18:25;30.55;;;15.10;;
27402;SDS011;14862;49.494;8.530;2024-01-15T09:20:50;26.17;;;14.07;;
27402;SDS011;14862;49.494;8.530;2024-01-15T09:23:15;27.08;;;14.20;;
27402;SDS011;14862;49.494;8.530;2024-01-15T09:25:40;29.43;;;13.33;;
27402;SDS011;14862;49.494;8.530;2024-01-15T09:28:05;28.63;;;14.77;;
27402;SDS011;14862;49.494;8.530;2024-01-15T09:30:31;25.08;;;14.48;;
27402;SDS011;14862;49.494;8.530;2024-01-15T09:32:57;24.90;;;13.35;;
27402;SDS011;14862;49.494;8.530;2024-01-15T09:35:22;25.20;;;12.95;;
27402;SDS011;14862;49.494;8.530;2024-01-15T09:37:47;27.55;;;13.48;;
27402;SDS011;14862;49.494;8.530;2024-01-15T09:40:13;25.00;;;14.47;;
27402;SDS011;14862;49.494;8.530;2024-01-15T09:42:40;24.15;;;13.48;;
27402;SDS011;14862;49.494;8.530;2024-01-15T09:45:05;30.48;;;14.32;;
27402;SDS011;14862;49.494;8.530;2024-01-15T09:47:31;26.20;;;14.77;;
27402;SDS011;14862;49.494;8.530;2024-01-15T09:49:56;24.83;;;14.00;;
27402;SDS011;14862;49.494;8.530;2024-01-15T09:52:23;24.17;;;13.05;;
27402;SDS011;14862;49.494;8.530;2024-01-15T09:54:49;23.77;;;13.38;;
27402;SDS011;14862;49.494;8.530;2024-01-15T09:57:14;21.63;;;11.88;;
27402;SDS011;14862;49.494;8.530;2024-01-15T09:59:40;22.83;;;12.88;;
27402;SDS011;14862;49.494;8.530;2024-01-15T10:02:07;20.63;;;11.65;;
27402;SDS011;14862;49.494;8.530;2024-01-15T10:04:32;26.42;;;13.65;;
27402;SDS011;14862;49.494;8.530;2024-01-15T10:06:57;26.27;;;12.95;;
27402;SDS011;14862;49.494;8.530;2024-01-15T10:09:22;21.63;;;12.55;;
27402;SDS011;14862;49.494;8.530;2024-01-15T10:11:48;22.60;;;12.97;;
27402;SDS011;14862;49.494;8.530;2024-01-15T10:14:13;24.05;;;12.43;;
27402;SDS011;14862;49.494;8.530;2024-01-15T10:16:39;19.50;;;11.40;;
27402;SDS011;14862;49.494;8.530;2024-01-15T10:19:04;21.45;;;11.77;;
27402;SDS011;14862;49.494;8.530;2024-01-15T10:21:31;19.50;;;11.10;;
27402;SDS011;14862;49.494;8.530;2024-01-15T10:23:56;23.23;;;11.35;;
27402;SDS011;14862;49.494;8.530;2024-01-15T10:26:24;24.07;;;11.67;;
27402;SDS011;14862;49.494;8.530;2024-01-15T10:28:50;21.10;;;10.77;;
27402;SDS011;14862;49.494;8.530;2024-01-15T10:31:16;20.33;;;10.80;;
27402;SDS011;14862;49.494;8.530;2024-01-15T10:33:42;21.65;;;11.52;;
27402;SDS011;14862;49.494;8.530;2024-01-15T10:36:07;19.87;;;11.33;;
27402;SDS011;14862;49.494;8.530;2024-01-15T10:38:34;20.67;;;12.10;;
27402;SDS011;14862;49.494;8.530;2024-01-15T10:40:59;20.57;;;10.70;;
27402;SDS011;14862;49.494;8.530;2024-01-15T10:43:24;21.30;;;10.97;;
27402;SDS011;14862;49.494;8.530;2024-01-15T10:45:50;19.30;;;10.30;;
27402;SDS011;14862;49.494;8.530;2024-01-15T10:48:16;16.17;;;9.73;;
27402;SDS011;14862;49.494;8.530;2024-01-15T10:50:42;18.48;;;10.70;;
27402;SDS011;14862;49.494;8.530;2024-01-15T10:53:09;16.25;;;9.38;;
27402;SDS011;14862;49.494;8.530;2024-01-15T10:55:37;16.92;;;9.45;;
27402;SDS011;14862;49.494;8.530;2024-01-15T10:58:03;17.67;;;9.38;;
27402;SDS011;14862;49.494;8.530;2024-01-15T11:00:29;14.52;;;8.90;;
27402;SDS011;14862;49.494;8.530;2024-01-15T11:02:54;17.13;;;9.02;;
27402;SDS011;14862;49.494;8.530;2024-01-15T11:05:20;16.80;;;9.10;;
27402;SDS011;14862;49.494;8.530;2024-01-15T11:07:47;19.52;;;9.48;;
27402;SDS011;14862;49.494;8.530;2024-01-15T11:15:22;14.25;;;7.72;;
27402;SDS011;14862;49.494;8.530;2024-01-15T11:18:00;14.88;;;7.63;;
27402;SDS011;14862;49.494;8.530;2024-01-15T11:20:26;15.45;;;8.60;;
27402;SDS011;14862;49.494;8.530;2024-01-15T11:22:51;40.97;;;9.77;;
27402;SDS011;14862;49.494;8.530;2024-01-15T11:25:18;18.80;;;9.23;;
27402;SDS011;14862;49.494;8.530;2024-01-15T11:27:45;17.13;;;8.25;;
27402;SDS011;14862;49.494;8.530;2024-01-15T11:30:17;18.65;;;8.30;;
27402;SDS011;14862;49.494;8.530;2024-01-15T11:32:42;11.07;;;6.22;;
27402;SDS011;14862;49.494;8.530;2024-01-15T11:35:08;12.02;;;7.18;;
27402;SDS011;14862;49.494;8.530;2024-01-15T11:40:19;11.88;;;6.90;;
27402;SDS011;14862;49.494;8.530;2024-01-15T11:42:45;15.32;;;7.30;;
27402;SDS011;14862;49.494;8.530;2024-01-15T11:45:10;11.18;;;6.68;;
27402;SDS011;14862;49.494;8.530;2024-01-15T11:50:20;13.02;;;7.95;;
27402;SDS011;14862;49.494;8.530;2024-01-15T11:52:48;12.35;;;7.75;;
27402;SDS011;14862;49.494;8.530;2024-01-15T11:55:22;13.63;;;8.00;;
27402;SDS011;14862;49.494;8.530;2024-01-15T11:57:52;12.88;;;8.55;;
27402;SDS011;14862;49.494;8.530;2024-01-15T12:00:17;17.38;;;8.63;;
27402;SDS011;14862;49.494;8.530;2024-01-15T12:02:43;14.23;;;8.93;;
27402;SDS011;14862;49.494;8.530;2024-01-15T12:05:09;17.15;;;9.50;;
27402;SDS011;14862;49.494;8.530;2024-01-15T12:07:35;13.88;;;9.32;;
27402;SDS011;14862;49.494;8.530;2024-01-15T12:10:00;16.13;;;8.95;;
27402;SDS011;14862;49.494;8.530;2024-01-15T12:12:51;12.82;;;7.60;;
27402;SDS011;14862;49.494;8.530;2024-01-15T12:15:11;12.60;;;7.60;;
27402;SDS011;14862;49.494;8.530;2024-01-15T12:17:36;12.80;;;7.53;;
27402;SDS011;14862;49.494;8.530;2024-01-15T12:20:05;12.80;;;7.90;;
27402;SDS011;14862;49.494;8.530;2024-01-15T12:22:31;14.07;;;8.23;;
27402;SDS011;14862;49.494;8.530;2024-01-15T12:24:56;14.05;;;8.52;;
27402;SDS011;14862;49.494;8.530;2024-01-15T12:27:22;13.77;;;8.07;;
27402;SDS011;14862;49.494;8.530;2024-01-15T12:29:48;15.35;;;8.93;;
27402;SDS011;14862;49.494;8.530;2024-01-15T12:32:13;13.13;;;7.87;;
27402;SDS011;14862;49.494;8.530;2024-01-15T12:34:38;13.45;;;7.80;;
27402;SDS011;14862;49.494;8.530;2024-01-15T12:37:03;13.18;;;8.00;;
27402;SDS011;14862;49.494;8.530;2024-01-15T12:39:29;15.25;;;8.50;;
27402;SDS011;14862;49.494;8.530;2024-01-15T12:41:54;13.07;;;8.10;;
27402;SDS011;14862;49.494;8.530;2024-01-15T12:44:19;13.38;;;8.45;;
27402;SDS011;14862;49.494;8.530;2024-01-15T12:46:45;14.00;;;8.33;;
27402;SDS011;14862;49.494;8.530;2024-01-15T12:49:10;14.55;;;8.68;;
27402;SDS011;14862;49.494;8.530;2024-01-15T12:51:35;15.47;;;8.63;;
27402;SDS011;14862;49.494;8.530;2024-01-15T12:54:00;15.27;;;8.37;;
27402;SDS011;14862;49.494;8.530;2024-01-15T12:56:25;15.30;;;8.93;;
27402;SDS011;14862;49.494;8.530;2024-01-15T12:58:51;16.27;;;9.07;;
27402;SDS011;14862;49.494;8.530;2024-01-15T13:01:16;12.63;;;8.10;;
27402;SDS011;14862;49.494;8.530;2024-01-15T13:03:41;12.57;;;7.95;;
27402;SDS011;14862;49.494;8.530;2024-01-15T13:06:06;12.82;;;7.72;;
27402;SDS011;14862;49.494;8.530;2024-01-15T13:08:31;13.53;;;8.00;;
27402;SDS011;14862;49.494;8.530;2024-01-15T13:10:57;13.33;;;8.03;;
27402;SDS011;14862;49.494;8.530;2024-01-15T13:13:22;15.07;;;7.93;;
27402;SDS011;14862;49.494;8.530;2024-01-15T13:15:48;12.35;;;7.90;;
27402;SDS011;14862;49.494;8.530;2024-01-15T13:18:16;13.48;;;7.97;;
27402;SDS011;14862;49.494;8.530;2024-01-15T13:20:42;13.90;;;8.00;;
27402;SDS011;14862;49.494;8.530;2024-01-15T13:23:07;12.82;;;8.25;;
27402;SDS011;14862;49.494;8.530;2024-01-15T13:25:32;11.63;;;7.93;;
27402;SDS011;14862;49.494;8.530;2024-01-15T13:28:00;12.02;;;7.38;;
27402;SDS011;14862;49.494;8.530;2024-01-15T13:30:27;11.82;;;6.80;;
27402;SDS011;14862;49.494;8.530;2024-01-15T13:32:52;12.38;;;7.43;;
27402;SDS011;14862;49.494;8.530;2024-01-15T13:35:19;13.13;;;7.93;;
27402;SDS011;14862;49.494;8.530;2024-01-15T13:37:44;12.40;;;7.80;;
27402;SDS011;14862;49.494;8.530;2024-01-15T13:40:09;14.88;;;7.85;;
27402;SDS011;14862;49.494;8.530;2024-01-15T13:42:35;14.00;;;7.68;;
27402;SDS011;14862;49.494;8.530;2024-01-15T13:45:03;13.00;;;7.50;;
27402;SDS011;14862;49.494;8.530;2024-01-15T13:47:30;13.20;;;8.10;;
27402;SDS011;14862;49.494;8.530;2024-01-15T13:49:55;12.17;;;7.00;;
27402;SDS011;14862;49.494;8.530;2024-01-15T13:52:21;12.93;;;7.60;;
27402;SDS011;14862;49.494;8.530;2024-01-15T13:54:46;11.13;;;6.97;;
27402;SDS011;14862;49.494;8.530;2024-01-15T13:57:11;14.10;;;7.70;;
27402;SDS011;14862;49.494;8.530;2024-01-15T13:59:36;12.80;;;7.83;;
27402;SDS011;14862;49.494;8.530;2024-01-15T14:02:01;13.50;;;7.53;;
27402;SDS011;14862;49.494;8.530;2024-01-15T14:04:26;12.40;;;7.32;;
27402;SDS011;14862;49.494;8.530;2024-01-15T14:06:52;12.27;;;7.10;;
27402;SDS011;14862;49.494;8.530;2024-01-15T14:09:17;12.53;;;7.10;;
27402;SDS011;14862;49.494;8.530;2024-01-15T14:11:43;13.55;;;7.72;;
27402;SDS011;14862;49.494;8.530;2024-01-15T14:14:08;12.77;;;7.63;;
27402;SDS011;14862;49.494;8.530;2024-01-15T14:16:34;14.77;;;7.80;;
27402;SDS011;14862;49.494;8.530;2024-01-15T14:18:59;14.63;;;8.35;;
27402;SDS011;14862;49.494;8.530;2024-01-15T14:21:24;15.23;;;8.63;;
27402;SDS011;14862;49.494;8.530;2024-01-15T14:23:49;11.83;;;6.97;;